Terminal Aerodrome Forecast
Issued by NWS Binghamton, NY

Home | Current Version | Previous Version | Text Only | Print | Product List | Glossary On
Versions: 1 2 3 4 5 6 7 8 9 10 11 12 13 14 15 16 17 18 19 20 21
000
FTUS41 KBGM 211700
TAFBGM
TAF
KBGM 211740Z 2118/2218 20010G20KT P6SM SCT035 BKN060
      TEMPO 2121/2123 4SM SHRA BR OVC025
     FM220000 28008KT P6SM BKN035
     FM220600 30010KT P6SM OVC015
     FM221500 32012G22KT P6SM BKN015=

USA.gov is the U.S. government's official web portal to all federal, state and local government web resources and services.